sensor_id;sensor_type;location;lat;lon;timestamp;temperature;humidity
70051;SHT30;57391;51.306;22.680;2023-08-17T00:01:34;23.54;74.47
70051;SHT30;57391;51.306;22.680;2023-08-17T00:04:01;23.52;74.63
70051;SHT30;57391;51.306;22.680;2023-08-17T00:06:27;23.50;74.84
70051;SHT30;57391;51.306;22.680;2023-08-17T00:08:55;23.46;75.10
70051;SHT30;57391;51.306;22.680;2023-08-17T00:11:22;23.42;75.32
70051;SHT30;57391;51.306;22.680;2023-08-17T00:13:49;23.39;75.40
70051;SHT30;57391;51.306;22.680;2023-08-17T00:16:16;23.37;75.48
70051;SHT30;57391;51.306;22.680;2023-08-17T00:18:43;23.36;75.53
70051;SHT30;57391;51.306;22.680;2023-08-17T00:21:10;23.34;75.51
70051;SHT30;57391;51.306;22.680;2023-08-17T00:23:37;23.35;75.57
70051;SHT30;57391;51.306;22.680;2023-08-17T00:26:04;23.33;75.74
70051;SHT30;57391;51.306;22.680;2023-08-17T00:28:31;23.31;75.83
70051;SHT30;57391;51.306;22.680;2023-08-17T00:30:59;23.29;75.88
70051;SHT30;57391;51.306;22.680;2023-08-17T00:33:27;23.28;75.93
70051;SHT30;57391;51.306;22.680;2023-08-17T00:35:54;23.27;75.96
70051;SHT30;57391;51.306;22.680;2023-08-17T00:38:21;23.27;76.02
70051;SHT30;57391;51.306;22.680;2023-08-17T00:40:48;23.26;76.04
70051;SHT30;57391;51.306;22.680;2023-08-17T00:43:15;23.26;76.11
70051;SHT30;57391;51.306;22.680;2023-08-17T00:45:42;23.27;76.06
70051;SHT30;57391;51.306;22.680;2023-08-17T00:48:13;23.28;76.09
70051;SHT30;57391;51.306;22.680;2023-08-17T00:50:41;23.30;76.04
70051;SHT30;57391;51.306;22.680;2023-08-17T00:53:08;23.33;75.98
70051;SHT30;57391;51.306;22.680;2023-08-17T00:55:39;23.37;75.90
70051;SHT30;57391;51.306;22.680;2023-08-17T00:58:07;23.41;75.83
70051;SHT30;57391;51.306;22.680;2023-08-17T01:00:34;23.44;75.75
70051;SHT30;57391;51.306;22.680;2023-08-17T01:03:02;23.48;75.75
70051;SHT30;57391;51.306;22.680;2023-08-17T01:05:29;23.49;75.71
70051;SHT30;57391;51.306;22.680;2023-08-17T01:07:59;23.52;75.54
70051;SHT30;57391;51.306;22.680;2023-08-17T01:10:28;23.52;75.45
70051;SHT30;57391;51.306;22.680;2023-08-17T01:16:29;23.55;75.43
70051;SHT30;57391;51.306;22.680;2023-08-17T01:19:08;23.56;75.29
70051;SHT30;57391;51.306;22.680;2023-08-17T01:21:42;23.56;75.19
70051;SHT30;57391;51.306;22.680;2023-08-17T01:24:16;23.56;75.15
70051;SHT30;57391;51.306;22.680;2023-08-17T01:26:43;23.56;75.07
70051;SHT30;57391;51.306;22.680;2023-08-17T01:29:10;23.56;75.07
70051;SHT30;57391;51.306;22.680;2023-08-17T01:31:40;23.57;74.99
70051;SHT30;57391;51.306;22.680;2023-08-17T01:34:24;23.58;74.91
70051;SHT30;57391;51.306;22.680;2023-08-17T01:36:58;23.59;74.90
70051;SHT30;57391;51.306;22.680;2023-08-17T01:39:35;23.60;74.88
70051;SHT30;57391;51.306;22.680;2023-08-17T01:42:09;23.60;74.80
70051;SHT30;57391;51.306;22.680;2023-08-17T01:44:38;23.61;74.80
70051;SHT30;57391;51.306;22.680;2023-08-17T01:47:06;23.62;74.79
70051;SHT30;57391;51.306;22.680;2023-08-17T01:49:33;23.62;74.78
70051;SHT30;57391;51.306;22.680;2023-08-17T01:51:59;23.60;74.77
70051;SHT30;57391;51.306;22.680;2023-08-17T01:54:27;23.58;74.83
70051;SHT30;57391;51.306;22.680;2023-08-17T01:56:54;23.57;74.90
70051;SHT30;57391;51.306;22.680;2023-08-17T01:59:20;23.52;74.97
70051;SHT30;57391;51.306;22.680;2023-08-17T02:01:47;23.49;75.08
70051;SHT30;57391;51.306;22.680;2023-08-17T02:04:14;23.47;75.15
70051;SHT30;57391;51.306;22.680;2023-08-17T02:06:42;23.43;75.21
70051;SHT30;57391;51.306;22.680;2023-08-17T02:09:09;23.42;75.26
70051;SHT30;57391;51.306;22.680;2023-08-17T02:11:36;23.42;75.32
70051;SHT30;57391;51.306;22.680;2023-08-17T02:14:03;23.40;75.40
70051;SHT30;57391;51.306;22.680;2023-08-17T02:16:30;23.38;75.41
70051;SHT30;57391;51.306;22.680;2023-08-17T02:18:57;23.38;75.36
70051;SHT30;57391;51.306;22.680;2023-08-17T02:21:25;23.38;75.36
70051;SHT30;57391;51.306;22.680;2023-08-17T02:23:52;23.37;75.35
70051;SHT30;57391;51.306;22.680;2023-08-17T02:26:18;23.37;75.29
70051;SHT30;57391;51.306;22.680;2023-08-17T02:28:45;23.37;75.22
70051;SHT30;57391;51.306;22.680;2023-08-17T02:31:12;23.36;75.21
70051;SHT30;57391;51.306;22.680;2023-08-17T02:33:39;23.34;75.18
70051;SHT30;57391;51.306;22.680;2023-08-17T02:36:06;23.31;75.26
70051;SHT30;57391;51.306;22.680;2023-08-17T02:38:33;23.31;75.34
70051;SHT30;57391;51.306;22.680;2023-08-17T02:41:00;23.29;75.46
70051;SHT30;57391;51.306;22.680;2023-08-17T02:43:27;23.28;75.54
70051;SHT30;57391;51.306;22.680;2023-08-17T02:45:53;23.26;75.60
70051;SHT30;57391;51.306;22.680;2023-08-17T02:48:20;23.23;75.67
70051;SHT30;57391;51.306;22.680;2023-08-17T02:50:47;23.14;75.83
70051;SHT30;57391;51.306;22.680;2023-08-17T02:53:14;23.06;75.99
70051;SHT30;57391;51.306;22.680;2023-08-17T02:55:44;22.97;76.21
70051;SHT30;57391;51.306;22.680;2023-08-17T02:58:11;22.89;76.43
70051;SHT30;57391;51.306;22.680;2023-08-17T03:00:37;22.81;76.64
70051;SHT30;57391;51.306;22.680;2023-08-17T03:03:04;22.78;76.73
70051;SHT30;57391;51.306;22.680;2023-08-17T03:05:31;22.78;76.71
70051;SHT30;57391;51.306;22.680;2023-08-17T03:07:59;22.79;76.74
70051;SHT30;57391;51.306;22.680;2023-08-17T03:10:27;22.82;76.75
70051;SHT30;57391;51.306;22.680;2023-08-17T03:12:53;22.82;76.70
70051;SHT30;57391;51.306;22.680;2023-08-17T03:15:20;22.85;76.68
70051;SHT30;57391;51.306;22.680;2023-08-17T03:17:47;22.87;76.62
70051;SHT30;57391;51.306;22.680;2023-08-17T03:20:14;22.88;76.60
70051;SHT30;57391;51.306;22.680;2023-08-17T03:22:41;22.91;76.60
70051;SHT30;57391;51.306;22.680;2023-08-17T03:25:08;22.91;76.61
70051;SHT30;57391;51.306;22.680;2023-08-17T03:27:35;22.91;76.60
70051;SHT30;57391;51.306;22.680;2023-08-17T03:30:03;22.93;76.59
70051;SHT30;57391;51.306;22.680;2023-08-17T03:32:31;22.94;76.51
70051;SHT30;57391;51.306;22.680;2023-08-17T03:34:58;22.98;76.42
70051;SHT30;57391;51.306;22.680;2023-08-17T03:37:25;22.99;76.39
70051;SHT30;57391;51.306;22.680;2023-08-17T03:39:52;23.00;76.38
70051;SHT30;57391;51.306;22.680;2023-08-17T03:42:19;23.03;76.32
70051;SHT30;57391;51.306;22.680;2023-08-17T03:44:46;23.06;76.31
70051;SHT30;57391;51.306;22.680;2023-08-17T03:47:12;23.09;76.22
70051;SHT30;57391;51.306;22.680;2023-08-17T03:49:40;23.12;76.06
70051;SHT30;57391;51.306;22.680;2023-08-17T03:52:07;23.13;76.05
70051;SHT30;57391;51.306;22.680;2023-08-17T03:54:35;23.17;75.93
70051;SHT30;57391;51.306;22.680;2023-08-17T03:57:02;23.24;75.89
70051;SHT30;57391;51.306;22.680;2023-08-17T03:59:29;23.43;75.79
70051;SHT30;57391;51.306;22.680;2023-08-17T04:01:56;23.60;75.31
70051;SHT30;57391;51.306;22.680;2023-08-17T04:04:23;23.77;74.86
70051;SHT30;57391;51.306;22.680;2023-08-17T04:06:50;24.07;74.36
70051;SHT30;57391;51.306;22.680;2023-08-17T04:09:17;24.30;73.83
70051;SHT30;57391;51.306;22.680;2023-08-17T04:11:44;24.36;73.49
70051;SHT30;57391;51.306;22.680;2023-08-17T04:14:11;24.37;73.23
70051;SHT30;57391;51.306;22.680;2023-08-17T04:16:38;24.27;73.20
70051;SHT30;57391;51.306;22.680;2023-08-17T04:19:05;24.19;73.32
70051;SHT30;57391;51.306;22.680;2023-08-17T04:21:32;24.14;73.42
70051;SHT30;57391;51.306;22.680;2023-08-17T04:23:59;24.08;73.60
70051;SHT30;57391;51.306;22.680;2023-08-17T04:26:26;24.03;73.84
70051;SHT30;57391;51.306;22.680;2023-08-17T04:28:53;23.99;74.09
70051;SHT30;57391;51.306;22.680;2023-08-17T04:31:20;23.97;74.30
70051;SHT30;57391;51.306;22.680;2023-08-17T04:33:53;23.96;74.34
70051;SHT30;57391;51.306;22.680;2023-08-17T04:36:19;23.97;74.50
70051;SHT30;57391;51.306;22.680;2023-08-17T04:38:46;23.99;74.52
70051;SHT30;57391;51.306;22.680;2023-08-17T04:41:13;24.03;74.50
70051;SHT30;57391;51.306;22.680;2023-08-17T04:43:40;24.06;74.36
70051;SHT30;57391;51.306;22.680;2023-08-17T04:46:07;24.07;74.21
70051;SHT30;57391;51.306;22.680;2023-08-17T04:48:34;24.13;74.15
70051;SHT30;57391;51.306;22.680;2023-08-17T04:51:04;24.14;74.08
70051;SHT30;57391;51.306;22.680;2023-08-17T04:53:31;24.10;74.10
70051;SHT30;57391;51.306;22.680;2023-08-17T04:56:02;24.07;74.27
70051;SHT30;57391;51.306;22.680;2023-08-17T04:58:29;24.04;74.30
70051;SHT30;57391;51.306;22.680;2023-08-17T05:00:58;24.01;74.36
70051;SHT30;57391;51.306;22.680;2023-08-17T05:03:26;24.02;74.43
70051;SHT30;57391;51.306;22.680;2023-08-17T05:05:52;24.00;74.55
70051;SHT30;57391;51.306;22.680;2023-08-17T05:08:19;24.00;74.70
70051;SHT30;57391;51.306;22.680;2023-08-17T05:10:49;24.04;74.85
70051;SHT30;57391;51.306;22.680;2023-08-17T05:13:16;24.10;74.88
70051;SHT30;57391;51.306;22.680;2023-08-17T05:15:43;24.15;74.94
70051;SHT30;57391;51.306;22.680;2023-08-17T05:18:11;24.18;74.98
70051;SHT30;57391;51.306;22.680;2023-08-17T05:20:38;24.23;74.81
70051;SHT30;57391;51.306;22.680;2023-08-17T05:23:05;24.25;74.70
70051;SHT30;57391;51.306;22.680;2023-08-17T05:25:32;24.25;74.88
70051;SHT30;57391;51.306;22.680;2023-08-17T05:27:59;24.21;74.47
70051;SHT30;57391;51.306;22.680;2023-08-17T05:30:26;24.19;74.29
70051;SHT30;57391;51.306;22.680;2023-08-17T05:32:53;24.15;74.44
70051;SHT30;57391;51.306;22.680;2023-08-17T05:35:21;24.13;74.49
70051;SHT30;57391;51.306;22.680;2023-08-17T05:37:48;24.14;74.63
70051;SHT30;57391;51.306;22.680;2023-08-17T05:40:14;24.13;74.58
70051;SHT30;57391;51.306;22.680;2023-08-17T05:42:41;24.14;74.45
70051;SHT30;57391;51.306;22.680;2023-08-17T05:45:08;24.16;74.32
70051;SHT30;57391;51.306;22.680;2023-08-17T05:47:35;24.19;74.06
70051;SHT30;57391;51.306;22.680;2023-08-17T05:50:03;24.24;74.16
70051;SHT30;57391;51.306;22.680;2023-08-17T05:52:31;24.29;74.01
70051;SHT30;57391;51.306;22.680;2023-08-17T05:54:58;24.37;74.09
70051;SHT30;57391;51.306;22.680;2023-08-17T05:57:25;24.43;74.19
70051;SHT30;57391;51.306;22.680;2023-08-17T05:59:52;24.47;73.88
70051;SHT30;57391;51.306;22.680;2023-08-17T06:02:19;24.51;73.78
70051;SHT30;57391;51.306;22.680;2023-08-17T06:04:47;24.54;73.75
70051;SHT30;57391;51.306;22.680;2023-08-17T06:07:14;24.59;73.70
70051;SHT30;57391;51.306;22.680;2023-08-17T06:09:41;24.67;73.52
70051;SHT30;57391;51.306;22.680;2023-08-17T06:12:08;24.76;73.15
70051;SHT30;57391;51.306;22.680;2023-08-17T06:14:35;24.84;72.75
70051;SHT30;57391;51.306;22.680;2023-08-17T06:17:02;24.89;72.55
70051;SHT30;57391;51.306;22.680;2023-08-17T06:19:29;24.96;72.23
70051;SHT30;57391;51.306;22.680;2023-08-17T06:21:56;25.02;72.16
70051;SHT30;57391;51.306;22.680;2023-08-17T06:24:23;25.06;72.20
70051;SHT30;57391;51.306;22.680;2023-08-17T06:26:50;25.11;72.61
70051;SHT30;57391;51.306;22.680;2023-08-17T06:29:17;25.17;72.29
70051;SHT30;57391;51.306;22.680;2023-08-17T06:31:44;25.24;72.05
70051;SHT30;57391;51.306;22.680;2023-08-17T06:34:10;25.30;71.94
70051;SHT30;57391;51.306;22.680;2023-08-17T06:36:38;25.36;72.18
70051;SHT30;57391;51.306;22.680;2023-08-17T06:39:06;25.46;71.87
70051;SHT30;57391;51.306;22.680;2023-08-17T06:41:33;25.56;71.76
70051;SHT30;57391;51.306;22.680;2023-08-17T06:44:00;25.69;71.45
70051;SHT30;57391;51.306;22.680;2023-08-17T06:46:27;25.79;71.13
70051;SHT30;57391;51.306;22.680;2023-08-17T06:48:54;25.89;70.67
70051;SHT30;57391;51.306;22.680;2023-08-17T06:51:21;26.00;70.56
70051;SHT30;57391;51.306;22.680;2023-08-17T06:53:48;26.11;70.19
70051;SHT30;57391;51.306;22.680;2023-08-17T06:56:15;26.21;69.72
70051;SHT30;57391;51.306;22.680;2023-08-17T06:58:42;26.29;69.39
70051;SHT30;57391;51.306;22.680;2023-08-17T07:01:08;26.37;69.04
70051;SHT30;57391;51.306;22.680;2023-08-17T07:03:36;26.46;69.60
70051;SHT30;57391;51.306;22.680;2023-08-17T07:06:02;26.48;69.72
70051;SHT30;57391;51.306;22.680;2023-08-17T07:08:30;26.49;69.35
70051;SHT30;57391;51.306;22.680;2023-08-17T07:10:57;26.52;69.23
70051;SHT30;57391;51.306;22.680;2023-08-17T07:13:24;26.57;69.14
70051;SHT30;57391;51.306;22.680;2023-08-17T07:15:50;26.61;68.78
70051;SHT30;57391;51.306;22.680;2023-08-17T07:18:17;26.66;69.00
70051;SHT30;57391;51.306;22.680;2023-08-17T07:20:44;26.69;68.57
70051;SHT30;57391;51.306;22.680;2023-08-17T07:23:11;26.74;68.30
70051;SHT30;57391;51.306;22.680;2023-08-17T07:25:38;26.79;67.89
70051;SHT30;57391;51.306;22.680;2023-08-17T07:28:05;26.84;68.14
70051;SHT30;57391;51.306;22.680;2023-08-17T07:30:33;26.91;68.15
70051;SHT30;57391;51.306;22.680;2023-08-17T07:33:00;26.98;68.10
70051;SHT30;57391;51.306;22.680;2023-08-17T07:35:27;27.06;67.74
70051;SHT30;57391;51.306;22.680;2023-08-17T07:37:53;27.13;67.24
70051;SHT30;57391;51.306;22.680;2023-08-17T07:40:20;27.23;67.03
70051;SHT30;57391;51.306;22.680;2023-08-17T07:42:47;27.36;67.11
70051;SHT30;57391;51.306;22.680;2023-08-17T07:45:14;27.46;65.78
70051;SHT30;57391;51.306;22.680;2023-08-17T07:47:41;27.55;65.43
70051;SHT30;57391;51.306;22.680;2023-08-17T07:50:08;27.69;65.20
70051;SHT30;57391;51.306;22.680;2023-08-17T07:52:35;27.81;63.99
70051;SHT30;57391;51.306;22.680;2023-08-17T07:55:02;27.89;64.12
70051;SHT30;57391;51.306;22.680;2023-08-17T07:57:29;28.05;64.28
70051;SHT30;57391;51.306;22.680;2023-08-17T07:59:56;28.25;63.97
70051;SHT30;57391;51.306;22.680;2023-08-17T08:02:24;28.46;63.41
70051;SHT30;57391;51.306;22.680;2023-08-17T08:04:51;28.61;62.33
70051;SHT30;57391;51.306;22.680;2023-08-17T08:07:17;28.80;61.82
70051;SHT30;57391;51.306;22.680;2023-08-17T08:09:44;29.01;62.18
70051;SHT30;57391;51.306;22.680;2023-08-17T08:12:11;29.22;60.92
70051;SHT30;57391;51.306;22.680;2023-08-17T08:14:38;29.33;60.07
70051;SHT30;57391;51.306;22.680;2023-08-17T08:17:05;29.44;59.61
70051;SHT30;57391;51.306;22.680;2023-08-17T08:19:32;29.54;58.40
70051;SHT30;57391;51.306;22.680;2023-08-17T08:21:59;29.63;58.92
70051;SHT30;57391;51.306;22.680;2023-08-17T08:24:26;29.75;59.50
70051;SHT30;57391;51.306;22.680;2023-08-17T08:26:57;29.86;60.29
70051;SHT30;57391;51.306;22.680;2023-08-17T08:29:24;29.98;59.70
70051;SHT30;57391;51.306;22.680;2023-08-17T08:31:51;30.05;58.60
70051;SHT30;57391;51.306;22.680;2023-08-17T08:34:18;30.11;57.13
70051;SHT30;57391;51.306;22.680;2023-08-17T08:36:44;30.18;57.01
70051;SHT30;57391;51.306;22.680;2023-08-17T08:39:11;30.25;56.89
70051;SHT30;57391;51.306;22.680;2023-08-17T08:41:40;30.31;56.74
70051;SHT30;57391;51.306;22.680;2023-08-17T08:44:07;30.35;56.77
70051;SHT30;57391;51.306;22.680;2023-08-17T08:46:33;30.37;56.79
70051;SHT30;57391;51.306;22.680;2023-08-17T08:49:06;30.40;55.66
70051;SHT30;57391;51.306;22.680;2023-08-17T08:51:41;30.36;55.77
70051;SHT30;57391;51.306;22.680;2023-08-17T08:54:13;30.37;55.65
70051;SHT30;57391;51.306;22.680;2023-08-17T08:56:46;30.40;55.29
70051;SHT30;57391;51.306;22.680;2023-08-17T08:59:25;30.45;56.09
70051;SHT30;57391;51.306;22.680;2023-08-17T09:01:55;30.53;56.14
70051;SHT30;57391;51.306;22.680;2023-08-17T09:04:24;30.59;55.93
70051;SHT30;57391;51.306;22.680;2023-08-17T09:06:52;30.70;56.35
70051;SHT30;57391;51.306;22.680;2023-08-17T09:09:22;30.82;56.49
70051;SHT30;57391;51.306;22.680;2023-08-17T09:11:49;30.92;56.30
70051;SHT30;57391;51.306;22.680;2023-08-17T09:14:16;31.03;56.19
70051;SHT30;57391;51.306;22.680;2023-08-17T09:16:43;31.10;55.12
70051;SHT30;57391;51.306;22.680;2023-08-17T09:19:10;31.19;55.58
70051;SHT30;57391;51.306;22.680;2023-08-17T09:21:37;31.31;54.23
70051;SHT30;57391;51.306;22.680;2023-08-17T09:24:03;31.46;54.13
70051;SHT30;57391;51.306;22.680;2023-08-17T09:26:33;31.63;52.81
70051;SHT30;57391;51.306;22.680;2023-08-17T09:29:00;31.83;52.74
70051;SHT30;57391;51.306;22.680;2023-08-17T09:31:30;31.95;50.84
70051;SHT30;57391;51.306;22.680;2023-08-17T09:33:58;32.00;50.56
70051;SHT30;57391;51.306;22.680;2023-08-17T09:36:32;32.06;48.89
70051;SHT30;57391;51.306;22.680;2023-08-17T09:39:02;32.09;48.30
70051;SHT30;57391;51.306;22.680;2023-08-17T09:41:29;32.18;48.34
70051;SHT30;57391;51.306;22.680;2023-08-17T09:43:56;32.35;47.58
70051;SHT30;57391;51.306;22.680;2023-08-17T09:46:23;32.52;46.48
70051;SHT30;57391;51.306;22.680;2023-08-17T09:48:52;32.68;45.97
70051;SHT30;57391;51.306;22.680;2023-08-17T09:51:23;32.81;45.09
70051;SHT30;57391;51.306;22.680;2023-08-17T09:53:53;32.88;43.68
70051;SHT30;57391;51.306;22.680;2023-08-17T09:56:24;32.94;43.12
70051;SHT30;57391;51.306;22.680;2023-08-17T09:58:53;32.97;42.91
70051;SHT30;57391;51.306;22.680;2023-08-17T10:01:20;33.00;43.02
70051;SHT30;57391;51.306;22.680;2023-08-17T10:03:49;33.04;42.70
70051;SHT30;57391;51.306;22.680;2023-08-17T10:06:20;33.10;42.37
70051;SHT30;57391;51.306;22.680;2023-08-17T10:08:51;33.12;40.87
70051;SHT30;57391;51.306;22.680;2023-08-17T10:11:21;33.16;41.02
70051;SHT30;57391;51.306;22.680;2023-08-17T10:14:02;33.23;41.04
70051;SHT30;57391;51.306;22.680;2023-08-17T10:16:46;33.30;40.70
70051;SHT30;57391;51.306;22.680;2023-08-17T10:25:22;33.19;39.72
70051;SHT30;57391;51.306;22.680;2023-08-17T10:27:50;33.20;39.51
70051;SHT30;57391;51.306;22.680;2023-08-17T10:30:20;33.29;39.15
70051;SHT30;57391;51.306;22.680;2023-08-17T10:32:47;33.41;39.25
70051;SHT30;57391;51.306;22.680;2023-08-17T10:35:14;33.55;38.28
70051;SHT30;57391;51.306;22.680;2023-08-17T10:37:42;33.66;37.68
70051;SHT30;57391;51.306;22.680;2023-08-17T10:40:10;33.68;37.56
70051;SHT30;57391;51.306;22.680;2023-08-17T10:42:37;33.70;37.73
70051;SHT30;57391;51.306;22.680;2023-08-17T10:50:34;33.76;37.51
70051;SHT30;57391;51.306;22.680;2023-08-17T10:53:08;33.79;37.73
70051;SHT30;57391;51.306;22.680;2023-08-17T10:55:39;33.89;38.33
70051;SHT30;57391;51.306;22.680;2023-08-17T10:58:08;34.01;37.70
70051;SHT30;57391;51.306;22.680;2023-08-17T11:00:35;34.06;37.12
70051;SHT30;57391;51.306;22.680;2023-08-17T11:03:04;34.10;37.55
70051;SHT30;57391;51.306;22.680;2023-08-17T11:05:35;34.12;38.61
70051;SHT30;57391;51.306;22.680;2023-08-17T11:08:07;34.11;37.62
70051;SHT30;57391;51.306;22.680;2023-08-17T11:10:36;34.05;38.24
70051;SHT30;57391;51.306;22.680;2023-08-17T11:13:04;34.10;37.96
70051;SHT30;57391;51.306;22.680;2023-08-17T11:15:40;34.08;37.67
70051;SHT30;57391;51.306;22.680;2023-08-17T11:18:09;34.05;37.43
70051;SHT30;57391;51.306;22.680;2023-08-17T11:20:37;34.02;38.15
70051;SHT30;57391;51.306;22.680;2023-08-17T11:23:06;34.00;38.28
70051;SHT30;57391;51.306;22.680;2023-08-17T11:25:34;33.99;38.58
70051;SHT30;57391;51.306;22.680;2023-08-17T11:28:03;33.94;37.58
70051;SHT30;57391;51.306;22.680;2023-08-17T11:30:35;33.88;37.42
70051;SHT30;57391;51.306;22.680;2023-08-17T11:33:05;33.92;38.15
70051;SHT30;57391;51.306;22.680;2023-08-17T11:35:34;34.05;38.53
70051;SHT30;57391;51.306;22.680;2023-08-17T11:38:02;34.20;38.27
70051;SHT30;57391;51.306;22.680;2023-08-17T11:40:30;34.26;37.56
70051;SHT30;57391;51.306;22.680;2023-08-17T11:42:57;34.29;37.56
70051;SHT30;57391;51.306;22.680;2023-08-17T11:45:24;34.29;37.50
70051;SHT30;57391;51.306;22.680;2023-08-17T11:47:51;34.28;37.84
70051;SHT30;57391;51.306;22.680;2023-08-17T11:50:18;34.30;37.81
70051;SHT30;57391;51.306;22.680;2023-08-17T11:52:45;34.28;38.18
70051;SHT30;57391;51.306;22.680;2023-08-17T11:55:15;34.22;38.11
70051;SHT30;57391;51.306;22.680;2023-08-17T11:57:46;34.06;38.44
70051;SHT30;57391;51.306;22.680;2023-08-17T12:00:17;33.97;38.37
70051;SHT30;57391;51.306;22.680;2023-08-17T12:02:48;33.86;39.03
70051;SHT30;57391;51.306;22.680;2023-08-17T12:05:20;33.76;39.91
70051;SHT30;57391;51.306;22.680;2023-08-17T12:07:50;33.71;38.86
70051;SHT30;57391;51.306;22.680;2023-08-17T12:10:19;33.72;40.04
70051;SHT30;57391;51.306;22.680;2023-08-17T12:12:48;33.72;39.65
70051;SHT30;57391;51.306;22.680;2023-08-17T12:15:16;33.64;39.30
70051;SHT30;57391;51.306;22.680;2023-08-17T12:17:44;33.48;39.61
70051;SHT30;57391;51.306;22.680;2023-08-17T12:20:16;33.42;39.73
70051;SHT30;57391;51.306;22.680;2023-08-17T12:22:47;33.44;39.84
70051;SHT30;57391;51.306;22.680;2023-08-17T12:25:14;33.51;39.74
70051;SHT30;57391;51.306;22.680;2023-08-17T12:27:41;33.55;39.24
70051;SHT30;57391;51.306;22.680;2023-08-17T12:30:12;33.48;39.04
70051;SHT30;57391;51.306;22.680;2023-08-17T12:32:51;33.37;39.79
70051;SHT30;57391;51.306;22.680;2023-08-17T12:35:18;33.31;39.87
70051;SHT30;57391;51.306;22.680;2023-08-17T12:37:47;33.24;40.12
70051;SHT30;57391;51.306;22.680;2023-08-17T12:40:14;33.19;39.95
70051;SHT30;57391;51.306;22.680;2023-08-17T12:42:41;33.19;40.40
70051;SHT30;57391;51.306;22.680;2023-08-17T12:45:08;33.19;40.66
70051;SHT30;57391;51.306;22.680;2023-08-17T12:47:36;33.15;40.42
70051;SHT30;57391;51.306;22.680;2023-08-17T12:50:03;33.15;41.26
70051;SHT30;57391;51.306;22.680;2023-08-17T12:52:31;33.20;40.97
70051;SHT30;57391;51.306;22.680;2023-08-17T12:54:58;33.23;40.84
70051;SHT30;57391;51.306;22.680;2023-08-17T12:57:25;33.30;41.07
70051;SHT30;57391;51.306;22.680;2023-08-17T12:59:53;33.40;41.52
70051;SHT30;57391;51.306;22.680;2023-08-17T13:02:20;33.48;41.34
70051;SHT30;57391;51.306;22.680;2023-08-17T13:04:47;33.56;40.63
70051;SHT30;57391;51.306;22.680;2023-08-17T13:07:14;33.61;41.00
70051;SHT30;57391;51.306;22.680;2023-08-17T13:09:42;33.71;41.19
70051;SHT30;57391;51.306;22.680;2023-08-17T13:12:09;33.83;40.62
70051;SHT30;57391;51.306;22.680;2023-08-17T13:14:36;33.99;40.52
70051;SHT30;57391;51.306;22.680;2023-08-17T13:17:02;34.03;39.72
70051;SHT30;57391;51.306;22.680;2023-08-17T13:19:29;34.06;39.41
70051;SHT30;57391;51.306;22.680;2023-08-17T13:21:56;34.10;39.61
70051;SHT30;57391;51.306;22.680;2023-08-17T13:24:23;34.14;39.51
70051;SHT30;57391;51.306;22.680;2023-08-17T13:26:50;34.23;39.62
70051;SHT30;57391;51.306;22.680;2023-08-17T13:29:20;34.20;38.05
70051;SHT30;57391;51.306;22.680;2023-08-17T13:31:47;34.09;37.08
70051;SHT30;57391;51.306;22.680;2023-08-17T13:34:15;34.02;38.15
70051;SHT30;57391;51.306;22.680;2023-08-17T13:36:41;33.99;37.97
70051;SHT30;57391;51.306;22.680;2023-08-17T13:39:08;33.97;38.17
70051;SHT30;57391;51.306;22.680;2023-08-17T13:41:36;33.88;37.68
70051;SHT30;57391;51.306;22.680;2023-08-17T13:44:03;33.77;38.01
70051;SHT30;57391;51.306;22.680;2023-08-17T13:46:31;33.65;38.47
70051;SHT30;57391;51.306;22.680;2023-08-17T13:48:58;33.57;38.79
70051;SHT30;57391;51.306;22.680;2023-08-17T13:51:25;33.51;39.43
70051;SHT30;57391;51.306;22.680;2023-08-17T13:53:52;33.37;39.49
70051;SHT30;57391;51.306;22.680;2023-08-17T13:56:19;33.31;40.06
70051;SHT30;57391;51.306;22.680;2023-08-17T13:58:46;33.25;40.51
70051;SHT30;57391;51.306;22.680;2023-08-17T14:01:12;33.17;39.87
70051;SHT30;57391;51.306;22.680;2023-08-17T14:03:40;33.12;39.78
70051;SHT30;57391;51.306;22.680;2023-08-17T14:06:09;33.10;38.96
70051;SHT30;57391;51.306;22.680;2023-08-17T14:08:36;33.13;38.60
70051;SHT30;57391;51.306;22.680;2023-08-17T14:11:03;33.20;37.08
70051;SHT30;57391;51.306;22.680;2023-08-17T14:13:30;33.26;37.25
70051;SHT30;57391;51.306;22.680;2023-08-17T14:15:57;33.33;37.22
70051;SHT30;57391;51.306;22.680;2023-08-17T14:18:25;33.32;36.92
70051;SHT30;57391;51.306;22.680;2023-08-17T14:20:52;33.33;37.30
70051;SHT30;57391;51.306;22.680;2023-08-17T14:23:19;33.36;37.97
70051;SHT30;57391;51.306;22.680;2023-08-17T14:25:46;33.37;37.68
70051;SHT30;57391;51.306;22.680;2023-08-17T14:28:13;33.33;37.51
70051;SHT30;57391;51.306;22.680;2023-08-17T14:30:40;33.29;36.96
70051;SHT30;57391;51.306;22.680;2023-08-17T14:33:07;33.27;37.14
70051;SHT30;57391;51.306;22.680;2023-08-17T14:35:34;33.23;37.48
70051;SHT30;57391;51.306;22.680;2023-08-17T14:38:01;33.17;37.83
70051;SHT30;57391;51.306;22.680;2023-08-17T14:40:28;33.11;38.40
70051;SHT30;57391;51.306;22.680;2023-08-17T14:42:55;33.10;39.24
70051;SHT30;57391;51.306;22.680;2023-08-17T14:45:22;33.13;38.92
70051;SHT30;57391;51.306;22.680;2023-08-17T14:47:49;33.13;38.07
70051;SHT30;57391;51.306;22.680;2023-08-17T14:50:16;33.17;38.34
70051;SHT30;57391;51.306;22.680;2023-08-17T14:52:42;33.19;38.57
70051;SHT30;57391;51.306;22.680;2023-08-17T14:55:09;33.16;38.08
70051;SHT30;57391;51.306;22.680;2023-08-17T14:57:37;33.10;38.63
70051;SHT30;57391;51.306;22.680;2023-08-17T15:00:04;33.06;39.04
70051;SHT30;57391;51.306;22.680;2023-08-17T15:02:32;33.03;38.97
70051;SHT30;57391;51.306;22.680;2023-08-17T15:04:58;33.01;39.09
70051;SHT30;57391;51.306;22.680;2023-08-17T15:07:25;33.01;39.33
70051;SHT30;57391;51.306;22.680;2023-08-17T15:09:52;32.99;37.88
70051;SHT30;57391;51.306;22.680;2023-08-17T15:12:19;32.94;38.26
70051;SHT30;57391;51.306;22.680;2023-08-17T15:14:46;32.88;38.75
70051;SHT30;57391;51.306;22.680;2023-08-17T15:17:13;32.77;39.55
70051;SHT30;57391;51.306;22.680;2023-08-17T15:19:40;32.63;39.72
70051;SHT30;57391;51.306;22.680;2023-08-17T15:22:07;32.51;40.16
70051;SHT30;57391;51.306;22.680;2023-08-17T15:24:34;32.38;40.48
70051;SHT30;57391;51.306;22.680;2023-08-17T15:27:02;32.23;40.96
70051;SHT30;57391;51.306;22.680;2023-08-17T15:29:29;32.10;41.56
70051;SHT30;57391;51.306;22.680;2023-08-17T15:31:56;31.99;41.73
70051;SHT30;57391;51.306;22.680;2023-08-17T15:34:23;31.90;42.02